Impacts TAF Board INFO
FOR SITUATIONAL AWARENESS. NOT TO BE USED FOR FLIGHT PLANNING PURPOSES.
IDs:

KTPA - Tampa Intl Arpt, FL, US

Issued at 1736 UTC 19 Jan 2017
Updated at 1910 UTC 19 Jan 2017
Potential Impact None Slight Moderate High
Time1853Z 19/20Z 19/21Z 19/22Z 19/23Z 20/00Z 20/01Z 20/02Z 20/03Z 20/04Z 20/05Z 20/06Z 20/07Z 20/08Z
Type OBS PRVL PRVL PRVL PRVL PRVL PRVL PRVL PRVL PRVL PRVL PRVL PRVL PRVL
VIS 10 >6 >6 >6 >6 >6 >6 >6 >6 >6 >6 >6 >6 5
CIG -- -- -- -- -- -- -- -- -- -- -- -- -- 250
Cover FEW SCT SCT SCT SCT SCT SCT SCT SCT SCT SCT SCT SCT BKN
FltCat VFR VFR VFR VFR VFR VFR VFR VFR VFR VFR VFR VFR VFR MVFR
WX -- -- -- -- -- -- -- -- -- -- -- -- -- BR
WDir 230 230 230 230 230 230 230 190 190 190 190 190 190 180
WSpd 6 7 7 7 7 7 7 4 4 4 4 4 4 3
WGst -- -- -- -- -- -- -- -- -- -- -- -- -- --

Raw TAF
KTPA 191736Z 1918/2018 23007KT P6SM SCT035 SCT250
  FM200200 19004KT P6SM SCT250
  FM200800 18003KT 5SM BR SCT025 SCT100 BKN250
  TEMPO 2009/2013 3SM BR BKN025
  FM201400 18008KT P6SM SCT025 BKN100 BKN250


Raw METAR
KTPA 191853Z 23006KT 10SM FEW040 26/16 A3001 RMK AO2 SLP160 T02560156
KTPA 191753Z 23007KT 10SM FEW038 24/15 A3004 RMK AO2 SLP170 T02440150 10250 20156 58023
KTPA 191653Z 21004KT 10SM FEW030 FEW250 24/16 A3007 RMK AO2 SLP183 T02440161

METAR Board
Radar Display
Forecast Discussion

FOR SITUATIONAL AWARENESS. NOT TO BE USED FOR FLIGHT PLANNING PURPOSES.

Page loaded:  19:10 UTC  |   11:10 AM Pacific  |   12:10 PM Mountain  |   01:10 PM Central  |   02:10 PM Eastern

 

ADVISORIES

FORECASTS

FORECASTS

OBSERVATIONS

USER TOOLS

ABOUT US